Terminal Aerodrome Forecast
Issued by NWS Amarillo, TX

Home | Current Version | Previous Version | Text Only | Print | Product List | Glossary On
Versions: 1 2 3 4 5 6 7 8 9 10 11 12 13 14 15 16 17 18 19
000
FTUS44 KAMA 242336
TAFGUY
TAF
KGUY 242336Z 2500/2524 18009KT P6SM BKN300
     FM250500 27011KT P6SM BKN300
     FM251400 33014KT P6SM BKN120
     FM252000 03009KT P6SM SCT050 OVC100=

USA.gov is the U.S. government's official web portal to all federal, state and local government web resources and services.